createdAt,value
2018-06-04T00:00:38.087Z,21.92
2018-06-04T00:03:06.716Z,21.91
2018-06-04T00:05:35.229Z,21.91
2018-06-04T00:08:03.754Z,21.88
2018-06-04T00:10:32.444Z,21.86
2018-06-04T00:13:01.062Z,21.85
2018-06-04T00:15:30.216Z,21.80
2018-06-04T00:17:58.905Z,21.78
2018-06-04T00:20:27.559Z,21.74
2018-06-04T00:22:56.241Z,21.71
2018-06-04T00:25:24.811Z,21.68
2018-06-04T00:27:53.409Z,21.64
2018-06-04T00:30:21.997Z,21.61
2018-06-04T00:32:50.616Z,21.58
2018-06-04T00:35:19.097Z,21.55
2018-06-04T00:37:47.709Z,21.53
2018-06-04T00:40:16.223Z,21.48
2018-06-04T00:42:45.005Z,21.45
2018-06-04T00:45:13.551Z,21.41
2018-06-04T00:47:42.133Z,21.37
2018-06-04T00:50:10.705Z,21.34
2018-06-04T00:52:39.302Z,21.33
2018-06-04T00:55:08.081Z,21.32
2018-06-04T00:57:36.606Z,21.33
2018-06-04T01:00:05.062Z,21.32
2018-06-04T01:02:33.693Z,21.14
2018-06-04T01:05:02.266Z,21.30
2018-06-04T01:07:30.912Z,21.29
2018-06-04T01:09:59.687Z,21.29
2018-06-04T01:12:28.204Z,21.29
2018-06-04T01:14:56.739Z,21.26
2018-06-04T01:17:25.350Z,21.23
2018-06-04T01:19:53.932Z,21.20
2018-06-04T01:22:22.563Z,21.17
2018-06-04T01:24:51.249Z,21.12
2018-06-04T01:27:19.779Z,21.06
2018-06-04T01:29:48.349Z,21.04
2018-06-04T01:32:16.925Z,21.03
2018-06-04T01:34:45.752Z,21.02
2018-06-04T01:37:14.294Z,20.98
2018-06-04T01:39:42.907Z,20.96
2018-06-04T01:42:11.531Z,20.93
2018-06-04T01:44:40.062Z,20.94
2018-06-04T01:47:08.604Z,20.92
2018-06-04T01:49:37.171Z,20.92
2018-06-04T01:52:05.804Z,20.92
2018-06-04T01:54:34.298Z,20.92
2018-06-04T01:57:02.860Z,20.92
2018-06-04T01:59:31.335Z,20.90
2018-06-04T02:01:59.905Z,20.87
2018-06-04T02:04:28.440Z,20.82
2018-06-04T02:06:56.959Z,20.81
2018-06-04T02:09:25.429Z,20.81
2018-06-04T02:11:53.960Z,20.76
2018-06-04T02:14:22.492Z,20.76
2018-06-04T02:16:51.132Z,20.76
2018-06-04T02:19:19.775Z,20.74
2018-06-04T02:21:48.306Z,20.69
2018-06-04T02:24:16.936Z,20.65
2018-06-04T02:26:45.457Z,20.62
2018-06-04T02:29:14.147Z,20.59
2018-06-04T02:31:42.732Z,20.57
2018-06-04T02:34:11.835Z,20.58
2018-06-04T02:36:40.413Z,20.57
2018-06-04T02:39:09.021Z,20.56
2018-06-04T02:41:37.554Z,20.56
2018-06-04T02:44:06.170Z,20.54
2018-06-04T02:46:34.855Z,20.52
2018-06-04T02:49:03.421Z,20.52
2018-06-04T02:51:31.960Z,20.52
2018-06-04T02:54:00.537Z,20.51
2018-06-04T02:56:29.063Z,20.52
2018-06-04T02:58:57.623Z,20.52
2018-06-04T03:01:26.202Z,20.51
2018-06-04T03:03:55.140Z,20.48
2018-06-04T03:06:23.676Z,20.48
2018-06-04T03:08:52.324Z,20.45
2018-06-04T03:11:20.902Z,20.42
2018-06-04T03:13:50.306Z,20.40
2018-06-04T03:16:18.855Z,20.40
2018-06-04T03:18:47.447Z,20.39
2018-06-04T03:21:16.129Z,20.37
2018-06-04T03:23:44.648Z,20.37
2018-06-04T03:26:14.102Z,20.38
2018-06-04T03:28:42.597Z,20.42
2018-06-04T03:31:11.060Z,20.42
2018-06-04T03:33:39.726Z,20.44
2018-06-04T03:36:08.213Z,20.44
2018-06-04T03:38:36.701Z,20.44
2018-06-04T03:41:05.349Z,20.45
2018-06-04T03:43:33.893Z,20.46
2018-06-04T03:46:02.402Z,20.45
2018-06-04T03:48:31.004Z,20.44
2018-06-04T03:50:59.565Z,20.45
2018-06-04T03:53:28.244Z,20.48
2018-06-04T03:55:56.846Z,19.98
2018-06-04T03:58:25.438Z,20.51
2018-06-04T04:00:53.942Z,20.53
2018-06-04T04:03:22.422Z,20.54
2018-06-04T04:05:50.939Z,20.54
2018-06-04T04:08:19.463Z,20.57
2018-06-04T04:10:48.014Z,20.60
2018-06-04T04:13:16.539Z,20.62
2018-06-04T04:15:45.103Z,20.66
2018-06-04T04:18:13.626Z,20.74
2018-06-04T04:20:42.221Z,20.82
2018-06-04T04:23:10.851Z,20.86
2018-06-04T04:25:39.372Z,20.88
2018-06-04T04:28:07.896Z,20.92
2018-06-04T04:30:36.427Z,20.98
2018-06-04T04:33:04.900Z,21.02
2018-06-04T04:35:33.489Z,21.07
2018-06-04T04:38:02.055Z,21.13
2018-06-04T04:40:30.665Z,21.15
2018-06-04T04:42:59.196Z,21.18
2018-06-04T04:45:27.740Z,21.26
2018-06-04T04:47:56.231Z,21.35
2018-06-04T04:50:24.849Z,21.46
2018-06-04T04:52:53.473Z,21.55
2018-06-04T04:55:22.303Z,21.65
2018-06-04T04:57:50.861Z,21.72
2018-06-04T05:00:19.406Z,21.82
2018-06-04T05:02:47.923Z,21.93
2018-06-04T05:05:16.655Z,22.04
2018-06-04T05:07:45.167Z,22.15
2018-06-04T05:10:13.833Z,22.27
2018-06-04T05:12:42.355Z,22.30
2018-06-04T05:15:11.018Z,22.36
2018-06-04T05:17:39.925Z,22.46
2018-06-04T05:20:09.474Z,22.53
2018-06-04T05:22:38.396Z,22.58
2018-06-04T05:25:07.166Z,22.64
2018-06-04T05:27:36.490Z,22.69
2018-06-04T05:30:05.217Z,22.78
2018-06-04T05:32:33.937Z,22.83
2018-06-04T05:35:02.604Z,22.95
2018-06-04T05:37:31.263Z,23.03
2018-06-04T05:40:00.630Z,23.15
2018-06-04T05:42:29.372Z,23.29
2018-06-04T05:44:58.083Z,23.51
2018-06-04T05:47:27.151Z,23.77
2018-06-04T05:49:55.956Z,24.13
2018-06-04T05:52:25.848Z,24.61
2018-06-04T05:54:54.824Z,25.09
2018-06-04T05:57:23.785Z,25.58
2018-06-04T05:59:52.424Z,26.10
2018-06-04T06:02:21.400Z,26.57
2018-06-04T06:04:50.025Z,27.01
2018-06-04T06:07:18.878Z,27.48
2018-06-04T06:09:47.636Z,27.92
2018-06-04T06:12:16.595Z,28.30
2018-06-04T06:14:45.119Z,28.64
2018-06-04T06:17:13.711Z,29.04
2018-06-04T06:19:42.631Z,29.37
2018-06-04T06:22:12.884Z,29.66
2018-06-04T06:24:41.488Z,29.82
2018-06-04T06:27:11.453Z,30.13
2018-06-04T06:29:40.504Z,30.32
2018-06-04T06:32:09.148Z,30.43
2018-06-04T06:34:37.764Z,29.90
2018-06-04T06:37:06.536Z,31.02
2018-06-04T06:39:35.246Z,31.26
2018-06-04T06:42:03.907Z,31.36
2018-06-04T06:44:32.636Z,31.53
2018-06-04T06:47:01.299Z,31.78
2018-06-04T06:49:30.634Z,32.03
2018-06-04T06:51:59.797Z,32.09
2018-06-04T06:54:28.923Z,32.33
2018-06-04T06:56:57.774Z,32.53
2018-06-04T06:59:26.671Z,32.90
2018-06-04T07:01:55.904Z,33.26
2018-06-04T07:04:25.358Z,33.68
2018-06-04T07:06:54.055Z,34.13
2018-06-04T07:09:22.730Z,34.34
2018-06-04T07:11:51.340Z,34.24
2018-06-04T07:14:20.029Z,34.30
2018-06-04T07:16:48.692Z,34.45
2018-06-04T07:19:17.181Z,34.65
2018-06-04T07:21:45.848Z,34.75
2018-06-04T07:24:14.529Z,35.09
2018-06-04T07:26:43.390Z,35.54
2018-06-04T07:29:12.173Z,35.92
2018-06-04T07:31:40.997Z,36.33
2018-06-04T07:34:09.683Z,36.72
2018-06-04T07:36:38.804Z,36.87
2018-06-04T07:39:08.918Z,37.02
2018-06-04T07:41:38.053Z,37.21
2018-06-04T07:44:06.979Z,34.82
2018-06-04T07:46:35.797Z,37.85
2018-06-04T07:49:04.926Z,37.88
2018-06-04T07:51:34.414Z,38.11
2018-06-04T07:54:03.063Z,37.92
2018-06-04T07:56:31.647Z,37.89
2018-06-04T07:59:00.213Z,37.66
2018-06-04T08:01:28.833Z,37.81
2018-06-04T08:04:03.766Z,38.02
2018-06-04T08:06:32.234Z,38.19
2018-06-04T08:09:00.690Z,38.19
2018-06-04T08:11:29.229Z,38.16
2018-06-04T08:13:57.717Z,38.25
2018-06-04T08:16:26.567Z,38.09
2018-06-04T08:18:55.106Z,36.99
2018-06-04T08:21:23.698Z,37.68
2018-06-04T08:23:52.265Z,37.89
2018-06-04T08:26:20.812Z,38.09
2018-06-04T08:28:49.346Z,38.18
2018-06-04T08:31:17.861Z,38.06
2018-06-04T08:33:46.396Z,37.82
2018-06-04T08:36:14.864Z,37.83
2018-06-04T08:38:43.440Z,37.92
2018-06-04T08:41:12.055Z,38.36
2018-06-04T08:43:40.567Z,38.96
2018-06-04T08:46:09.037Z,39.50
2018-06-04T08:48:37.575Z,39.79
2018-06-04T08:51:06.124Z,39.96
2018-06-04T08:53:34.628Z,40.10
2018-06-04T08:56:03.183Z,40.40
2018-06-04T08:58:31.728Z,40.81
2018-06-04T09:01:00.184Z,41.14
2018-06-04T09:03:28.788Z,41.43
2018-06-04T09:05:57.636Z,41.58
2018-06-04T09:08:26.276Z,41.73
2018-06-04T09:10:54.749Z,42.13
2018-06-04T09:13:23.247Z,42.44
2018-06-04T09:15:52.037Z,42.48
2018-06-04T09:18:20.734Z,42.71
2018-06-04T09:20:49.490Z,42.87
2018-06-04T09:23:18.019Z,42.98
2018-06-04T09:25:46.635Z,43.16
2018-06-04T09:28:15.166Z,43.37
2018-06-04T09:30:43.622Z,42.42
2018-06-04T09:33:12.869Z,43.57
2018-06-04T09:35:41.620Z,43.64
2018-06-04T09:38:11.174Z,43.76
2018-06-04T09:40:40.141Z,43.69
2018-06-04T09:43:08.970Z,44.02
2018-06-04T09:45:37.938Z,44.42
2018-06-04T09:48:06.733Z,43.91
2018-06-04T09:50:35.429Z,43.39
2018-06-04T09:53:04.366Z,43.16
2018-06-04T09:55:33.477Z,42.86
2018-06-04T09:58:02.285Z,42.91
2018-06-04T10:00:35.072Z,42.58
2018-06-04T10:03:04.868Z,42.45
2018-06-04T10:05:33.569Z,42.38
2018-06-04T10:08:02.277Z,43.01
2018-06-04T10:10:30.957Z,43.65
2018-06-04T10:12:59.626Z,44.10
2018-06-04T10:15:28.474Z,44.49
2018-06-04T10:17:57.361Z,45.10
2018-06-04T10:20:26.125Z,45.77
2018-06-04T10:22:54.828Z,46.27
2018-06-04T10:25:23.552Z,46.24
2018-06-04T10:27:52.201Z,46.69
2018-06-04T10:30:21.277Z,47.45
2018-06-04T10:32:50.172Z,48.08
2018-06-04T10:35:21.007Z,48.06
2018-06-04T10:37:49.813Z,47.02
2018-06-04T10:40:19.123Z,46.64
2018-06-04T10:42:47.800Z,46.65
2018-06-04T10:45:16.659Z,45.16
2018-06-04T10:47:46.005Z,45.32
2018-06-04T10:50:14.879Z,46.25
2018-06-04T10:52:43.712Z,46.10
2018-06-04T10:55:12.839Z,45.74
2018-06-04T10:57:41.632Z,45.38
2018-06-04T11:00:10.532Z,44.13
2018-06-04T11:02:39.733Z,44.17
2018-06-04T11:05:09.261Z,44.85
2018-06-04T11:07:37.984Z,44.85
2018-06-04T11:10:06.940Z,44.28
2018-06-04T11:12:35.860Z,44.60
2018-06-04T11:15:04.484Z,44.91
2018-06-04T11:17:33.125Z,45.43
2018-06-04T11:20:02.021Z,45.82
2018-06-04T11:22:30.789Z,45.39
2018-06-04T11:24:59.699Z,44.40
2018-06-04T11:27:28.620Z,43.22
2018-06-04T11:29:59.664Z,42.22
2018-06-04T11:32:28.571Z,41.60
2018-06-04T11:34:58.491Z,40.83
2018-06-04T11:37:27.573Z,40.41
2018-06-04T11:39:56.370Z,40.15
2018-06-04T11:42:25.358Z,39.62
2018-06-04T11:44:53.975Z,38.60
2018-06-04T11:47:22.810Z,38.00
2018-06-04T11:49:51.598Z,37.65
2018-06-04T11:52:20.805Z,37.35
2018-06-04T11:54:49.877Z,37.03
2018-06-04T11:57:18.802Z,36.74
2018-06-04T11:59:47.797Z,36.67
2018-06-04T12:02:16.591Z,36.62
2018-06-04T12:04:45.427Z,36.55
2018-06-04T12:07:14.150Z,36.58
2018-06-04T12:09:42.733Z,36.65
2018-06-04T12:12:11.676Z,36.35
2018-06-04T12:14:40.414Z,36.23
2018-06-04T12:17:09.305Z,36.23
2018-06-04T12:19:38.214Z,36.33
2018-06-04T12:22:07.000Z,36.40
2018-06-04T12:24:35.759Z,36.53
2018-06-04T12:27:04.556Z,36.52
2018-06-04T12:29:33.255Z,36.49
2018-06-04T12:32:02.049Z,36.37
2018-06-04T12:34:31.161Z,36.16
2018-06-04T12:37:01.477Z,35.98
2018-06-04T12:39:30.487Z,35.73
2018-06-04T12:41:59.445Z,35.65
2018-06-04T12:44:28.220Z,35.68
2018-06-04T12:46:57.116Z,35.73
2018-06-04T12:49:26.111Z,35.69
2018-06-04T12:51:55.001Z,35.58
2018-06-04T12:54:24.403Z,35.46
2018-06-04T12:56:53.398Z,35.45
2018-06-04T12:59:22.316Z,35.47
2018-06-04T13:01:51.497Z,35.36
2018-06-04T13:04:20.509Z,35.30
2018-06-04T13:06:49.706Z,35.33
2018-06-04T13:09:18.934Z,35.41
2018-06-04T13:11:47.792Z,35.35
2018-06-04T13:14:16.550Z,35.29
2018-06-04T13:16:45.620Z,34.55
2018-06-04T13:19:14.552Z,35.07
2018-06-04T13:21:43.488Z,34.97
2018-06-04T13:24:12.340Z,34.86
2018-06-04T13:26:41.324Z,34.91
2018-06-04T13:29:10.307Z,35.17
2018-06-04T13:31:39.233Z,35.25
2018-06-04T13:34:08.840Z,35.35
2018-06-04T13:36:37.799Z,35.49
2018-06-04T13:39:09.047Z,35.56
2018-06-04T13:41:37.960Z,33.47
2018-06-04T13:44:06.746Z,35.50
2018-06-04T13:46:35.644Z,35.42
2018-06-04T13:49:04.407Z,35.40
2018-06-04T13:51:33.428Z,35.11
2018-06-04T13:54:03.054Z,34.88
2018-06-04T13:56:32.007Z,34.69
2018-06-04T13:59:01.155Z,34.57
2018-06-04T14:01:29.925Z,34.48
2018-06-04T14:03:58.879Z,34.47
2018-06-04T14:06:27.792Z,34.52
2018-06-04T14:08:57.169Z,34.49
2018-06-04T14:11:25.986Z,34.44
2018-06-04T14:13:54.780Z,34.41
2018-06-04T14:16:23.796Z,34.31
2018-06-04T14:18:52.629Z,34.26
2018-06-04T14:21:21.604Z,34.27
2018-06-04T14:23:51.224Z,34.27
2018-06-04T14:26:20.189Z,34.34
2018-06-04T14:28:49.207Z,34.29
2018-06-04T14:31:18.640Z,34.20
2018-06-04T14:33:47.510Z,34.15
2018-06-04T14:36:16.355Z,34.21
2018-06-04T14:38:45.223Z,34.27
2018-06-04T14:41:14.296Z,34.13
2018-06-04T14:43:43.145Z,34.09
2018-06-04T14:46:12.328Z,33.94
2018-06-04T14:48:41.080Z,33.73
2018-06-04T14:51:09.873Z,33.46
2018-06-04T14:53:38.737Z,33.29
2018-06-04T14:56:07.500Z,33.23
2018-06-04T14:58:41.768Z,33.21
2018-06-04T15:01:10.597Z,33.16
2018-06-04T15:03:39.519Z,33.16
2018-06-04T15:06:09.023Z,33.21
2018-06-04T15:08:37.943Z,33.24
2018-06-04T15:11:06.723Z,33.32
2018-06-04T15:13:35.508Z,33.26
2018-06-04T15:16:04.335Z,33.35
2018-06-04T15:18:33.094Z,33.37
2018-06-04T15:21:01.916Z,33.42
2018-06-04T15:23:30.875Z,33.40
2018-06-04T15:26:00.753Z,33.27
2018-06-04T15:28:29.520Z,33.14
2018-06-04T15:30:58.416Z,33.12
2018-06-04T15:33:28.368Z,33.12
2018-06-04T15:35:57.543Z,33.01
2018-06-04T15:38:26.607Z,32.86
2018-06-04T15:40:55.561Z,32.90
2018-06-04T15:43:25.527Z,32.88
2018-06-04T15:45:54.486Z,32.89
2018-06-04T15:48:26.879Z,32.87
2018-06-04T15:50:56.507Z,32.85
2018-06-04T15:53:32.682Z,32.82
2018-06-04T15:56:03.122Z,32.94
2018-06-04T15:58:35.134Z,32.95
2018-06-04T16:03:42.726Z,32.74
2018-06-04T16:06:12.924Z,32.62
2018-06-04T16:08:42.879Z,32.50
2018-06-04T16:11:13.456Z,32.37
2018-06-04T16:13:42.406Z,32.32
2018-06-04T16:16:11.281Z,32.27
2018-06-04T16:18:40.285Z,32.21
2018-06-04T16:21:09.212Z,32.21
2018-06-04T16:23:37.875Z,32.11
2018-06-04T16:26:06.662Z,32.03
2018-06-04T16:28:36.824Z,31.95
2018-06-04T16:31:05.602Z,31.86
2018-06-04T16:33:37.717Z,31.79
2018-06-04T16:36:06.524Z,31.75
2018-06-04T16:38:35.180Z,30.99
2018-06-04T16:41:03.791Z,31.78
2018-06-04T16:43:32.503Z,31.68
2018-06-04T16:46:01.266Z,31.55
2018-06-04T16:48:29.903Z,31.53
2018-06-04T16:50:58.509Z,31.38
2018-06-04T16:53:27.372Z,31.34
2018-06-04T16:55:56.059Z,31.25
2018-06-04T16:58:24.862Z,31.07
2018-06-04T17:00:53.553Z,31.24
2018-06-04T17:03:22.356Z,31.25
2018-06-04T17:05:51.099Z,31.18
2018-06-04T17:08:19.753Z,31.11
2018-06-04T17:10:48.472Z,31.05
2018-06-04T17:13:17.181Z,31.03
2018-06-04T17:15:45.862Z,31.05
2018-06-04T17:18:14.572Z,30.96
2018-06-04T17:20:43.325Z,30.96
2018-06-04T17:23:11.994Z,30.88
2018-06-04T17:25:40.776Z,30.78
2018-06-04T17:28:09.584Z,30.68
2018-06-04T17:30:38.291Z,30.57
2018-06-04T17:33:06.945Z,30.46
2018-06-04T17:35:35.681Z,30.35
2018-06-04T17:38:04.425Z,30.21
2018-06-04T17:40:33.075Z,30.11
2018-06-04T17:43:01.837Z,29.99
2018-06-04T17:45:30.401Z,29.88
2018-06-04T17:47:59.003Z,29.80
2018-06-04T17:50:27.872Z,29.71
2018-06-04T17:52:58.220Z,29.62
2018-06-04T17:55:27.259Z,29.49
2018-06-04T17:57:57.145Z,29.38
2018-06-04T18:00:26.176Z,29.36
2018-06-04T18:02:55.124Z,29.28
2018-06-04T18:05:24.101Z,29.17
2018-06-04T18:07:52.995Z,29.11
2018-06-04T18:10:22.854Z,29.05
2018-06-04T18:12:51.831Z,28.99
2018-06-04T18:15:20.696Z,28.88
2018-06-04T18:17:49.659Z,28.86
2018-06-04T18:20:18.526Z,28.83
2018-06-04T18:22:47.987Z,28.80
2018-06-04T18:25:17.111Z,28.79
2018-06-04T18:27:46.272Z,28.77
2018-06-04T18:30:15.615Z,28.73
2018-06-04T18:32:45.086Z,28.69
2018-06-04T18:35:14.001Z,28.60
2018-06-04T18:37:42.935Z,28.51
2018-06-04T18:40:11.960Z,28.42
2018-06-04T18:42:41.309Z,28.37
2018-06-04T18:45:10.859Z,28.31
2018-06-04T18:47:39.936Z,28.22
2018-06-04T18:50:09.108Z,28.13
2018-06-04T18:52:37.774Z,28.12
2018-06-04T18:55:11.726Z,28.08
2018-06-04T18:57:40.695Z,24.65
2018-06-04T19:00:09.318Z,28.00
2018-06-04T19:02:38.028Z,27.97
2018-06-04T19:05:07.072Z,27.93
2018-06-04T19:07:35.891Z,27.84
2018-06-04T19:10:04.582Z,27.79
2018-06-04T19:12:33.220Z,27.75
2018-06-04T19:15:01.933Z,27.70
2018-06-04T19:17:30.635Z,27.62
2018-06-04T19:19:59.422Z,27.55
2018-06-04T19:22:28.107Z,27.45
2018-06-04T19:24:56.956Z,27.37
2018-06-04T19:27:25.652Z,27.31
2018-06-04T19:29:54.488Z,27.26
2018-06-04T19:32:23.284Z,27.20
2018-06-04T19:34:52.055Z,27.13
2018-06-04T19:37:20.795Z,27.07
2018-06-04T19:39:49.614Z,27.01
2018-06-04T19:42:18.331Z,26.94
2018-06-04T19:44:47.775Z,26.89
2018-06-04T19:47:16.568Z,26.83
2018-06-04T19:49:45.283Z,26.75
2018-06-04T19:52:13.832Z,26.69
2018-06-04T19:54:42.671Z,26.63
2018-06-04T19:57:11.380Z,26.56
2018-06-04T19:59:40.073Z,26.50
2018-06-04T20:02:08.669Z,26.44
2018-06-04T20:04:37.335Z,26.40
2018-06-04T20:07:06.151Z,26.31
2018-06-04T20:09:34.876Z,26.25
2018-06-04T20:12:03.522Z,26.18
2018-06-04T20:14:32.547Z,26.14
2018-06-04T20:17:01.236Z,26.10
2018-06-04T20:19:29.919Z,26.03
2018-06-04T20:21:58.737Z,25.98
2018-06-04T20:24:27.533Z,25.92
2018-06-04T20:26:56.201Z,25.86
2018-06-04T20:29:24.751Z,25.83
2018-06-04T20:31:53.299Z,25.75
2018-06-04T20:34:21.942Z,25.68
2018-06-04T20:36:50.664Z,25.62
2018-06-04T20:39:19.449Z,25.57
2018-06-04T20:41:48.084Z,25.53
2018-06-04T20:44:17.021Z,25.44
2018-06-04T20:46:46.183Z,25.39
2018-06-04T20:49:14.788Z,25.35
2018-06-04T20:51:43.425Z,25.32
2018-06-04T20:54:12.073Z,25.27
2018-06-04T20:56:41.103Z,25.23
2018-06-04T20:59:09.744Z,25.16
2018-06-04T21:01:38.376Z,25.09
2018-06-04T21:04:07.048Z,25.03
2018-06-04T21:06:35.653Z,24.96
2018-06-04T21:09:06.319Z,24.92
2018-06-04T21:11:34.899Z,24.88
2018-06-04T21:14:04.284Z,24.85
2018-06-04T21:16:33.093Z,24.79
2018-06-04T21:19:02.473Z,24.75
2018-06-04T21:21:31.544Z,24.68
2018-06-04T21:24:00.512Z,24.64
2018-06-04T21:26:29.484Z,24.55
2018-06-04T21:28:58.132Z,24.50
2018-06-04T21:31:26.719Z,24.43
2018-06-04T21:33:55.321Z,24.38
2018-06-04T21:36:23.893Z,24.33
2018-06-04T21:38:52.645Z,24.31
2018-06-04T21:41:21.212Z,24.26
2018-06-04T21:43:49.812Z,24.20
2018-06-04T21:46:18.422Z,24.14
2018-06-04T21:48:48.689Z,24.07
2018-06-04T21:51:17.257Z,24.02
2018-06-04T21:53:45.799Z,23.96
2018-06-04T21:56:14.220Z,23.90
2018-06-04T21:58:43.204Z,23.86
2018-06-04T22:01:11.867Z,23.83
2018-06-04T22:03:40.474Z,23.78
2018-06-04T22:06:09.074Z,23.76
2018-06-04T22:08:37.674Z,23.72
2018-06-04T22:11:06.303Z,23.71
2018-06-04T22:13:34.893Z,23.66
2018-06-04T22:16:03.421Z,23.64
2018-06-04T22:18:31.982Z,23.62
2018-06-04T22:21:00.673Z,23.58
2018-06-04T22:23:29.239Z,23.57
2018-06-04T22:25:57.845Z,23.54
2018-06-04T22:28:26.491Z,23.50
2018-06-04T22:30:54.993Z,23.46
2018-06-04T22:33:23.598Z,23.43
2018-06-04T22:35:52.200Z,23.39
2018-06-04T22:38:20.750Z,23.35
2018-06-04T22:40:49.362Z,23.31
2018-06-04T22:43:17.988Z,23.27
2018-06-04T22:45:46.579Z,23.22
2018-06-04T22:48:15.277Z,23.14
2018-06-04T22:50:44.147Z,23.09
2018-06-04T22:53:12.696Z,23.00
2018-06-04T22:55:41.325Z,22.97
2018-06-04T22:58:09.903Z,22.89
2018-06-04T23:00:38.385Z,22.88
2018-06-04T23:03:07.285Z,22.83
2018-06-04T23:05:35.776Z,22.79
2018-06-04T23:08:04.454Z,22.73
2018-06-04T23:10:33.068Z,22.69
2018-06-04T23:13:01.708Z,22.66
2018-06-04T23:15:30.232Z,22.66
2018-06-04T23:17:58.764Z,22.68
2018-06-04T23:20:27.550Z,22.73
2018-06-04T23:22:56.105Z,22.82
2018-06-04T23:25:24.756Z,22.87
2018-06-04T23:27:53.337Z,22.97
2018-06-04T23:30:21.922Z,22.93
2018-06-04T23:32:50.451Z,22.95
2018-06-04T23:35:19.060Z,23.00
2018-06-04T23:37:47.615Z,23.07
2018-06-04T23:40:16.134Z,23.09
2018-06-04T23:42:44.732Z,23.11
2018-06-04T23:45:13.342Z,23.08
2018-06-04T23:47:41.858Z,23.09
2018-06-04T23:50:10.491Z,23.08
2018-06-04T23:52:39.125Z,23.08
2018-06-04T23:55:08.514Z,23.06
2018-06-04T23:57:37.002Z,23.05
